WetterOnline ( https://www.wetteronline.at )

Wetter aktuell Konstanz

Aktuelles Wetter: Konstanz (397m)

6-stündlich | Neueste Meldungen
Ortszeit Temperatur Wetter
Sa, 21.09. 2:00 9.3° C wolkenlos
Fr, 20.09. 20:00 14.5° C wolkig
Fr, 20.09. 14:00 17.6° C leicht bewölkt
Fr, 20.09. 8:00 8.5° C leicht bewölkt
Fr, 20.09. 2:00 10.5° C leicht bewölkt
Do, 19.09. 20:00 13.6° C wolkenlos
Do, 19.09. 14:00 17.0° C wolkenlos
Do, 19.09. 8:00 9.2° C leicht bewölkt
Ortszeit Temperatur Wetter
Sa, 21.09. 2:00 9.3° C wolkenlos
Sa, 21.09. 1:40 9.8° C fast wolkenlos
Sa, 21.09. 1:30 9.8° C wolkig
Sa, 21.09. 1:20 9.8° C wolkig
Sa, 21.09. 1:10 9.7° C leicht bewölkt
Sa, 21.09. 1:00 10.2° C wolkig
Sa, 21.09. 0:50 10.2° C wolkig
Sa, 21.09. 0:30 10.2° C leicht bewölkt
Sa, 21.09. 0:00 10.7° C leicht bewölkt
Fr, 20.09. 23:30 11.1° C wolkig
Fr, 20.09. 23:00 11.5° C wolkig
Ortszeit Relative Feuchte Sichtweite
Sa, 21.09. 2:00 74% 60 km
Fr, 20.09. 20:00 50% 70 km
Fr, 20.09. 14:00 41% 40 km
Fr, 20.09. 8:00 65% 70 km
Fr, 20.09. 2:00 58% 70 km
Do, 19.09. 20:00 50% 70 km
Do, 19.09. 14:00 41% 35 km
Do, 19.09. 8:00 68% 70 km
Ortszeit Relative Feuchte Sichtweite
Sa, 21.09. 2:00 74% 60 km
Sa, 21.09. 1:40 71% -
Sa, 21.09. 1:30 71% 60 km
Sa, 21.09. 1:20 71% -
Sa, 21.09. 1:10 71% -
Sa, 21.09. 1:00 70% 65 km
Sa, 21.09. 0:50 70% -
Sa, 21.09. 0:30 70% 70 km
Sa, 21.09. 0:00 66% 70 km
Fr, 20.09. 23:30 64% 70 km
Fr, 20.09. 23:00 62% 70 km
Ortszeit Niederschlagsmenge Niederschlagsart
Sa, 21.09. 2:00 0.0 l/m2 in 6 Std. -
Fr, 20.09. 20:00 0.0 l/m2 in 12 Std. -
Fr, 20.09. 14:00 0.0 l/m2 in 6 Std. -
Fr, 20.09. 8:00 0.0 l/m2 in 12 Std. -
Fr, 20.09. 2:00 0.0 l/m2 in 6 Std. -
Do, 19.09. 20:00 0.0 l/m2 in 12 Std. -
Do, 19.09. 14:00 0.0 l/m2 in 6 Std. -
Do, 19.09. 8:00 0.0 l/m2 in 12 Std. -
Ortszeit Niederschlagsmenge Niederschlagsart
Sa, 21.09. 2:00 0.0 l/m2 in 1 Std. -
Sa, 21.09. 1:40 keine Meldung -
Sa, 21.09. 1:30 0.0 l/m2 in 1 Std. -
Sa, 21.09. 1:20 keine Meldung -
Sa, 21.09. 1:10 keine Meldung -
Sa, 21.09. 1:00 0.0 l/m2 in 1 Std. -
Sa, 21.09. 0:50 keine Meldung -
Sa, 21.09. 0:30 0.0 l/m2 in 1 Std. -
Sa, 21.09. 0:00 0.0 l/m2 in 1 Std. -
Fr, 20.09. 23:30 0.0 l/m2 in 1 Std. -
Fr, 20.09. 23:00 0.0 l/m2 in 1 Std. -
Ortszeit Stärke Spitze Richtung
km/h Bft. km/h Grad Sektor
Sa, 21.09. 2:00 7 2 29 10° N
Fr, 20.09. 20:00 11 2 26 40° NO
Fr, 20.09. 14:00 11 2 20 80° O
Fr, 20.09. 8:00 7 2 32 60° NO
Fr, 20.09. 2:00 13 3 35 60° NO
Do, 19.09. 20:00 11 2 32 40° NO
Do, 19.09. 14:00 14 3 32 60° NO
Do, 19.09. 8:00 11 2 25 20° N
Ortszeit Stärke Spitze Richtung
km/h Bft. km/h Grad Sektor
Sa, 21.09. 2:00 7 2 14 10° N
Sa, 21.09. 1:40 7 2 - 20° N
Sa, 21.09. 1:30 7 2 11 30° NO
Sa, 21.09. 1:20 7 2 - 30° NO
Sa, 21.09. 1:10 7 2 - 20° N
Sa, 21.09. 1:00 7 2 14 30° NO
Sa, 21.09. 0:50 7 2 - 30° NO
Sa, 21.09. 0:30 7 2 14 30° NO
Sa, 21.09. 0:00 7 2 14 30° NO
Fr, 20.09. 23:30 7 2 14 30° NO
Fr, 20.09. 23:00 7 2 14 20° N
Ortszeit Untergrenze Bedeckung Gattung
total tief tief mittel hoch
Sa, 21.09. 2:00 - 0/8 0/8 - - -
Fr, 20.09. 20:00 9000 m 7/8 0/8 - - -
Fr, 20.09. 14:00 10500 m 6/8 0/8 - - -
Fr, 20.09. 8:00 10500 m 3/8 0/8 - - -
Fr, 20.09. 2:00 10500 m 4/8 0/8 - - -
Do, 19.09. 20:00 10500 m 0/8 0/8 - - -
Do, 19.09. 14:00 - 0/8 0/8 - - -
Do, 19.09. 8:00 9000 m 5/8 0/8 - - -
Ortszeit Bedeckungsgrad in Achtel und Wolkenuntergrenze
Sa, 21.09. 2:00 keine Wolken
Sa, 21.09. 1:40 2(10500m)
Sa, 21.09. 1:30 7(10500m)
Sa, 21.09. 1:20 7(10500m)
Sa, 21.09. 1:10 5(10500m)
Sa, 21.09. 1:00 8(10500m)
Sa, 21.09. 0:50 8(10500m)
Sa, 21.09. 0:30 4(10500m)
Sa, 21.09. 0:00 3(10500m)
Fr, 20.09. 23:30 8(10500m)
Fr, 20.09. 23:00 8(10500m)
Ortszeit Luftdruck NN (hPa) Tendenz (hPa in 3 Std.)
Sa, 21.09. 2:00 1023 - 0,9
Fr, 20.09. 20:00 1024 - 0,2
Fr, 20.09. 14:00 1025 - 1,2
Fr, 20.09. 8:00 1027 + 0,2
Fr, 20.09. 2:00 1027 - 0,6
Do, 19.09. 20:00 1026 + 0,7
Do, 19.09. 14:00 1025 - 0,4
Do, 19.09. 8:00 1026 + 0,8
Ortszeit Luftdruck NN (hPa) Tendenz (hPa in 3 Std.)
Sa, 21.09. 2:00 1023 - 0,9
Sa, 21.09. 1:40 1023 keine Meldung
Sa, 21.09. 1:30 1023 - 0,9
Sa, 21.09. 1:20 1023 keine Meldung
Sa, 21.09. 1:10 1023 keine Meldung
Sa, 21.09. 1:00 1023 - 1,0
Sa, 21.09. 0:50 1023 keine Meldung
Sa, 21.09. 0:30 1024 - 1,1
Sa, 21.09. 0:00 1024 - 0,8
Fr, 20.09. 23:30 1024 - 0,8
Fr, 20.09. 23:00 1024 - 0,7
Ortszeit Schneehöhe (cm)
Sa, 21.09. 2:00 -
Fr, 20.09. 20:00 -
Fr, 20.09. 14:00 -
Fr, 20.09. 8:00 -
Fr, 20.09. 2:00 -
Do, 19.09. 20:00 -
Do, 19.09. 14:00 -
Do, 19.09. 8:00 -
Ortszeit Schneehöhe (cm)
Sa, 21.09. 2:00 -
Sa, 21.09. 1:40 -
Sa, 21.09. 1:30 -
Sa, 21.09. 1:20 -
Sa, 21.09. 1:10 -
Sa, 21.09. 1:00 -
Sa, 21.09. 0:50 -
Sa, 21.09. 0:30 -
Sa, 21.09. 0:00 -
Fr, 20.09. 23:30 -
Fr, 20.09. 23:00 -
Link zu dieser Seite / Seite empfehlen

Das Wetter in ...